sensor_id;sensor_type;location;lat;lon;timestamp;pressure;altitude;pressure_sealevel;temperature;humidity
66703;BME280;60933;46.398;-63.798;2022-08-01T00:01:59;101353.91;;;24.74;58.72
66703;BME280;60933;46.398;-63.798;2022-08-01T00:04:25;101351.28;;;24.74;57.31
66703;BME280;60933;46.398;-63.798;2022-08-01T00:06:51;101344.41;;;24.72;56.56
66703;BME280;60933;46.398;-63.798;2022-08-01T00:09:17;101356.47;;;24.63;59.45
66703;BME280;60933;46.398;-63.798;2022-08-01T00:11:43;101355.47;;;24.53;57.96
66703;BME280;60933;46.398;-63.798;2022-08-01T00:14:11;101355.31;;;24.43;58.34
66703;BME280;60933;46.398;-63.798;2022-08-01T00:16:37;101359.03;;;24.40;57.69
66703;BME280;60933;46.398;-63.798;2022-08-01T00:19:04;101367.84;;;24.28;60.66
66703;BME280;60933;46.398;-63.798;2022-08-01T00:21:30;101370.31;;;24.18;59.83
66703;BME280;60933;46.398;-63.798;2022-08-01T00:23:56;101364.41;;;24.14;57.98
66703;BME280;60933;46.398;-63.798;2022-08-01T00:26:22;101377.09;;;24.09;59.94
66703;BME280;60933;46.398;-63.798;2022-08-01T00:28:48;101381.34;;;23.99;59.81
66703;BME280;60933;46.398;-63.798;2022-08-01T00:31:15;101379.22;;;23.91;62.34
66703;BME280;60933;46.398;-63.798;2022-08-01T00:33:41;101382.63;;;23.80;60.68
66703;BME280;60933;46.398;-63.798;2022-08-01T00:36:07;101396.03;;;23.77;60.99
66703;BME280;60933;46.398;-63.798;2022-08-01T00:38:33;101393.81;;;23.71;60.95
66703;BME280;60933;46.398;-63.798;2022-08-01T00:40:59;101390.88;;;23.63;59.86
66703;BME280;60933;46.398;-63.798;2022-08-01T00:43:25;101388.88;;;23.53;60.04
66703;BME280;60933;46.398;-63.798;2022-08-01T00:45:51;101388.56;;;23.45;60.12
66703;BME280;60933;46.398;-63.798;2022-08-01T00:48:17;101378.91;;;23.33;59.53
66703;BME280;60933;46.398;-63.798;2022-08-01T00:50:44;101378.25;;;23.29;59.26
66703;BME280;60933;46.398;-63.798;2022-08-01T00:53:10;101381.66;;;23.31;58.67
66703;BME280;60933;46.398;-63.798;2022-08-01T00:55:36;101391.75;;;23.24;59.54
66703;BME280;60933;46.398;-63.798;2022-08-01T00:58:02;101399.13;;;23.19;59.59
66703;BME280;60933;46.398;-63.798;2022-08-01T01:00:28;101404.97;;;23.10;59.19
66703;BME280;60933;46.398;-63.798;2022-08-01T01:02:54;101403.59;;;23.04;60.82
66703;BME280;60933;46.398;-63.798;2022-08-01T01:05:21;101403.06;;;22.99;61.11
66703;BME280;60933;46.398;-63.798;2022-08-01T01:07:59;101402.75;;;22.91;61.32
66703;BME280;60933;46.398;-63.798;2022-08-01T01:10:32;101392.94;;;22.80;61.91
66703;BME280;60933;46.398;-63.798;2022-08-01T01:13:06;101397.66;;;22.75;61.68
66703;BME280;60933;46.398;-63.798;2022-08-01T01:16:13;101393.00;;;22.66;62.15
66703;BME280;60933;46.398;-63.798;2022-08-01T01:29:23;101395.16;;;22.32;62.77
66703;BME280;60933;46.398;-63.798;2022-08-01T01:34:21;101397.72;;;22.19;61.46
66703;BME280;60933;46.398;-63.798;2022-08-01T01:36:48;101408.44;;;22.16;63.91
66703;BME280;60933;46.398;-63.798;2022-08-01T01:39:16;101395.97;;;22.05;65.23
66703;BME280;60933;46.398;-63.798;2022-08-01T01:41:44;101405.75;;;22.03;64.50
66703;BME280;60933;46.398;-63.798;2022-08-01T01:44:11;101402.56;;;21.97;66.03
66703;BME280;60933;46.398;-63.798;2022-08-01T01:46:37;101405.38;;;21.94;65.71
66703;BME280;60933;46.398;-63.798;2022-08-01T01:49:05;101396.19;;;21.87;64.48
66703;BME280;60933;46.398;-63.798;2022-08-01T01:51:35;101402.00;;;21.92;62.60
66703;BME280;60933;46.398;-63.798;2022-08-01T01:54:02;101401.16;;;21.92;62.82
66703;BME280;60933;46.398;-63.798;2022-08-01T01:56:31;101400.69;;;21.85;64.97
66703;BME280;60933;46.398;-63.798;2022-08-01T01:59:02;101406.44;;;21.77;65.21
66703;BME280;60933;46.398;-63.798;2022-08-01T02:01:31;101394.78;;;21.67;66.20
66703;BME280;60933;46.398;-63.798;2022-08-01T02:04:00;101395.56;;;21.69;64.27
66703;BME280;60933;46.398;-63.798;2022-08-01T02:06:29;101399.00;;;21.70;62.57
66703;BME280;60933;46.398;-63.798;2022-08-01T02:08:58;101401.84;;;21.66;63.41
66703;BME280;60933;46.398;-63.798;2022-08-01T02:11:25;101398.47;;;21.64;64.86
66703;BME280;60933;46.398;-63.798;2022-08-01T02:14:00;101406.16;;;21.68;63.42
66703;BME280;60933;46.398;-63.798;2022-08-01T02:16:31;101410.56;;;21.67;63.69
66703;BME280;60933;46.398;-63.798;2022-08-01T02:18:59;101409.81;;;21.65;62.84
66703;BME280;60933;46.398;-63.798;2022-08-01T02:21:32;101407.16;;;21.65;63.45
66703;BME280;60933;46.398;-63.798;2022-08-01T02:24:09;101404.75;;;21.62;64.63
66703;BME280;60933;46.398;-63.798;2022-08-01T02:26:40;101410.34;;;21.56;63.85
66703;BME280;60933;46.398;-63.798;2022-08-01T02:29:10;101406.31;;;21.50;64.88
66703;BME280;60933;46.398;-63.798;2022-08-01T02:31:41;101408.19;;;21.48;63.57
66703;BME280;60933;46.398;-63.798;2022-08-01T02:34:10;101412.41;;;21.50;64.00
66703;BME280;60933;46.398;-63.798;2022-08-01T02:36:38;101419.16;;;21.55;66.70
66703;BME280;60933;46.398;-63.798;2022-08-01T02:39:08;101406.13;;;21.53;66.70
66703;BME280;60933;46.398;-63.798;2022-08-01T02:41:41;101409.50;;;21.55;65.37
66703;BME280;60933;46.398;-63.798;2022-08-01T02:44:10;101414.09;;;21.51;65.53
66703;BME280;60933;46.398;-63.798;2022-08-01T02:46:46;101408.38;;;21.45;65.13
66703;BME280;60933;46.398;-63.798;2022-08-01T02:49:15;101413.81;;;21.42;64.43
66703;BME280;60933;46.398;-63.798;2022-08-01T02:51:43;101416.81;;;21.35;65.73
66703;BME280;60933;46.398;-63.798;2022-08-01T02:54:10;101402.72;;;21.22;65.69
66703;BME280;60933;46.398;-63.798;2022-08-01T02:56:38;101426.91;;;21.27;66.27
66703;BME280;60933;46.398;-63.798;2022-08-01T02:59:13;101421.84;;;21.24;65.87
66703;BME280;60933;46.398;-63.798;2022-08-01T03:01:42;101427.94;;;21.25;67.90
66703;BME280;60933;46.398;-63.798;2022-08-01T03:04:11;101420.34;;;21.20;66.75
66703;BME280;60933;46.398;-63.798;2022-08-01T03:06:38;101414.22;;;21.19;66.60
66703;BME280;60933;46.398;-63.798;2022-08-01T03:09:06;101413.41;;;21.19;65.92
66703;BME280;60933;46.398;-63.798;2022-08-01T03:11:35;101421.28;;;21.19;67.99
66703;BME280;60933;46.398;-63.798;2022-08-01T03:14:07;101425.75;;;21.17;67.39
66703;BME280;60933;46.398;-63.798;2022-08-01T03:16:37;101420.50;;;21.17;66.85
66703;BME280;60933;46.398;-63.798;2022-08-01T03:19:04;101415.09;;;21.20;66.07
66703;BME280;60933;46.398;-63.798;2022-08-01T03:21:32;101415.09;;;21.20;65.22
66703;BME280;60933;46.398;-63.798;2022-08-01T03:24:01;101417.88;;;21.17;65.68
66703;BME280;60933;46.398;-63.798;2022-08-01T03:26:33;101421.28;;;21.19;66.99
66703;BME280;60933;46.398;-63.798;2022-08-01T03:29:04;101416.19;;;21.16;66.66
66703;BME280;60933;46.398;-63.798;2022-08-01T03:31:36;101419.00;;;21.13;67.94
66703;BME280;60933;46.398;-63.798;2022-08-01T03:34:05;101410.38;;;21.11;68.70
66703;BME280;60933;46.398;-63.798;2022-08-01T03:36:33;101410.38;;;21.11;66.44
66703;BME280;60933;46.398;-63.798;2022-08-01T03:39:03;101407.66;;;21.12;66.57
66703;BME280;60933;46.398;-63.798;2022-08-01T03:41:36;101407.75;;;21.11;68.12
66703;BME280;60933;46.398;-63.798;2022-08-01T03:44:15;101400.34;;;21.03;69.67
66703;BME280;60933;46.398;-63.798;2022-08-01T03:46:52;101396.84;;;21.02;67.06
66703;BME280;60933;46.398;-63.798;2022-08-01T03:49:29;101409.31;;;20.99;71.07
66703;BME280;60933;46.398;-63.798;2022-08-01T03:51:56;101406.19;;;20.92;67.36
66703;BME280;60933;46.398;-63.798;2022-08-01T03:54:30;101401.81;;;20.93;68.06
66703;BME280;60933;46.398;-63.798;2022-08-01T03:56:59;101404.69;;;20.88;68.43
66703;BME280;60933;46.398;-63.798;2022-08-01T03:59:27;101409.00;;;20.89;69.21
66703;BME280;60933;46.398;-63.798;2022-08-01T04:01:53;101404.78;;;20.86;68.66
66703;BME280;60933;46.398;-63.798;2022-08-01T04:04:21;101401.41;;;20.84;66.98
66703;BME280;60933;46.398;-63.798;2022-08-01T04:06:47;101411.13;;;20.82;69.24
66703;BME280;60933;46.398;-63.798;2022-08-01T04:09:16;101411.13;;;20.82;68.96
66703;BME280;60933;46.398;-63.798;2022-08-01T04:11:43;101403.34;;;20.81;67.02
66703;BME280;60933;46.398;-63.798;2022-08-01T04:14:09;101388.91;;;20.74;67.24
66703;BME280;60933;46.398;-63.798;2022-08-01T04:16:35;101406.91;;;20.80;67.89
66703;BME280;60933;46.398;-63.798;2022-08-01T04:19:02;101401.84;;;20.77;69.22
66703;BME280;60933;46.398;-63.798;2022-08-01T04:21:29;101402.03;;;20.74;67.12
66703;BME280;60933;46.398;-63.798;2022-08-01T04:24:00;101401.22;;;20.71;67.14
66703;BME280;60933;46.398;-63.798;2022-08-01T04:26:29;101415.28;;;20.70;66.31
66703;BME280;60933;46.398;-63.798;2022-08-01T04:28:56;101398.03;;;20.66;67.05
66703;BME280;60933;46.398;-63.798;2022-08-01T04:31:24;101407.94;;;20.61;69.89
66703;BME280;60933;46.398;-63.798;2022-08-01T04:33:53;101399.47;;;20.56;68.65
66703;BME280;60933;46.398;-63.798;2022-08-01T04:36:23;101403.97;;;20.54;67.30
66703;BME280;60933;46.398;-63.798;2022-08-01T04:38:54;101406.66;;;20.52;68.27
66703;BME280;60933;46.398;-63.798;2022-08-01T04:41:21;101404.25;;;20.49;66.68
66703;BME280;60933;46.398;-63.798;2022-08-01T04:43:48;101407.78;;;20.48;68.58
66703;BME280;60933;46.398;-63.798;2022-08-01T04:46:14;101399.31;;;20.43;68.24
66703;BME280;60933;46.398;-63.798;2022-08-01T04:48:43;101404.56;;;20.43;67.49
66703;BME280;60933;46.398;-63.798;2022-08-01T04:51:14;101408.16;;;20.42;67.71
66703;BME280;60933;46.398;-63.798;2022-08-01T04:53:42;101408.97;;;20.43;68.82
66703;BME280;60933;46.398;-63.798;2022-08-01T04:56:08;101403.16;;;20.37;66.84
66703;BME280;60933;46.398;-63.798;2022-08-01T04:58:34;101405.00;;;20.35;67.66
66703;BME280;60933;46.398;-63.798;2022-08-01T05:01:00;101402.38;;;20.35;67.88
66703;BME280;60933;46.398;-63.798;2022-08-01T05:03:27;101399.25;;;20.29;69.45
66703;BME280;60933;46.398;-63.798;2022-08-01T05:05:53;101409.47;;;20.33;67.94
66703;BME280;60933;46.398;-63.798;2022-08-01T05:08:19;101408.41;;;20.37;67.99
66703;BME280;60933;46.398;-63.798;2022-08-01T05:10:46;101404.81;;;20.38;69.02
66703;BME280;60933;46.398;-63.798;2022-08-01T05:13:12;101405.94;;;20.34;68.32
66703;BME280;60933;46.398;-63.798;2022-08-01T05:15:38;101404.25;;;20.33;68.77
66703;BME280;60933;46.398;-63.798;2022-08-01T05:18:04;101403.56;;;20.30;68.10
66703;BME280;60933;46.398;-63.798;2022-08-01T05:20:30;101406.09;;;20.31;69.07
66703;BME280;60933;46.398;-63.798;2022-08-01T05:22:57;101410.41;;;20.32;70.57
66703;BME280;60933;46.398;-63.798;2022-08-01T05:25:23;101417.59;;;20.29;68.82
66703;BME280;60933;46.398;-63.798;2022-08-01T05:27:49;101411.53;;;20.28;68.22
66703;BME280;60933;46.398;-63.798;2022-08-01T05:30:16;101412.34;;;20.29;67.69
66703;BME280;60933;46.398;-63.798;2022-08-01T05:32:42;101430.13;;;20.23;71.61
66703;BME280;60933;46.398;-63.798;2022-08-01T05:35:08;101426.72;;;20.21;71.18
66703;BME280;60933;46.398;-63.798;2022-08-01T05:37:35;101423.34;;;20.19;68.75
66703;BME280;60933;46.398;-63.798;2022-08-01T05:40:01;101440.94;;;20.17;71.22
66703;BME280;60933;46.398;-63.798;2022-08-01T05:42:27;101430.63;;;20.14;70.38
66703;BME280;60933;46.398;-63.798;2022-08-01T05:44:53;101431.78;;;20.08;71.40
66703;BME280;60933;46.398;-63.798;2022-08-01T05:47:19;101426.88;;;20.02;69.76
66703;BME280;60933;46.398;-63.798;2022-08-01T05:49:45;101427.06;;;19.99;72.39
66703;BME280;60933;46.398;-63.798;2022-08-01T05:52:12;101428.91;;;19.97;71.88
66703;BME280;60933;46.398;-63.798;2022-08-01T05:54:38;101418.78;;;19.91;72.75
66703;BME280;60933;46.398;-63.798;2022-08-01T05:57:04;101425.72;;;19.92;70.77
66703;BME280;60933;46.398;-63.798;2022-08-01T05:59:31;101424.94;;;19.90;72.18
66703;BME280;60933;46.398;-63.798;2022-08-01T06:01:57;101434.16;;;19.97;70.54
66703;BME280;60933;46.398;-63.798;2022-08-01T06:04:23;101431.53;;;19.97;70.73
66703;BME280;60933;46.398;-63.798;2022-08-01T06:06:50;101428.22;;;19.93;72.14
66703;BME280;60933;46.398;-63.798;2022-08-01T06:09:16;101421.38;;;19.91;73.72
66703;BME280;60933;46.398;-63.798;2022-08-01T06:11:42;101418.00;;;19.89;70.98
66703;BME280;60933;46.398;-63.798;2022-08-01T06:14:08;101420.78;;;19.86;73.79
66703;BME280;60933;46.398;-63.798;2022-08-01T06:16:34;101410.44;;;19.83;71.90
66703;BME280;60933;46.398;-63.798;2022-08-01T06:19:00;101415.38;;;19.89;72.20
66703;BME280;60933;46.398;-63.798;2022-08-01T06:21:26;101411.16;;;19.86;70.64
66703;BME280;60933;46.398;-63.798;2022-08-01T06:23:52;101405.81;;;19.88;72.13
66703;BME280;60933;46.398;-63.798;2022-08-01T06:26:19;101410.22;;;19.87;70.04
66703;BME280;60933;46.398;-63.798;2022-08-01T06:28:45;101414.38;;;19.91;70.81
66703;BME280;60933;46.398;-63.798;2022-08-01T06:31:11;101405.66;;;19.91;69.96
66703;BME280;60933;46.398;-63.798;2022-08-01T06:33:39;101410.03;;;19.90;70.33
66703;BME280;60933;46.398;-63.798;2022-08-01T06:36:05;101401.94;;;19.95;70.00
66703;BME280;60933;46.398;-63.798;2022-08-01T06:38:31;101409.81;;;19.95;70.20
66703;BME280;60933;46.398;-63.798;2022-08-01T06:40:57;101412.19;;;20.00;71.71
66703;BME280;60933;46.398;-63.798;2022-08-01T06:43:23;101405.91;;;20.02;70.36
66703;BME280;60933;46.398;-63.798;2022-08-01T06:45:49;101411.00;;;20.05;70.47
66703;BME280;60933;46.398;-63.798;2022-08-01T06:48:15;101405.25;;;19.99;71.76
66703;BME280;60933;46.398;-63.798;2022-08-01T06:50:41;101410.66;;;19.96;73.02
66703;BME280;60933;46.398;-63.798;2022-08-01T06:53:08;101406.59;;;19.90;72.56
66703;BME280;60933;46.398;-63.798;2022-08-01T06:55:34;101404.06;;;19.88;72.42
66703;BME280;60933;46.398;-63.798;2022-08-01T06:58:00;101403.13;;;19.89;71.70
66703;BME280;60933;46.398;-63.798;2022-08-01T07:00:27;101408.28;;;19.91;71.71
66703;BME280;60933;46.398;-63.798;2022-08-01T07:02:55;101404.13;;;19.87;71.01
66703;BME280;60933;46.398;-63.798;2022-08-01T07:05:22;101403.34;;;19.85;71.09
66703;BME280;60933;46.398;-63.798;2022-08-01T07:07:48;101400.78;;;19.83;71.99
66703;BME280;60933;46.398;-63.798;2022-08-01T07:10:15;101398.25;;;19.82;71.05
66703;BME280;60933;46.398;-63.798;2022-08-01T07:12:41;101394.88;;;19.80;71.18
66703;BME280;60933;46.398;-63.798;2022-08-01T07:15:09;101393.19;;;19.78;70.41
66703;BME280;60933;46.398;-63.798;2022-08-01T07:17:40;101396.56;;;19.81;71.23
66703;BME280;60933;46.398;-63.798;2022-08-01T07:20:09;101393.94;;;19.81;71.50
66703;BME280;60933;46.398;-63.798;2022-08-01T07:22:35;101391.47;;;19.77;71.65
66703;BME280;60933;46.398;-63.798;2022-08-01T07:25:03;101392.59;;;19.73;71.21
66703;BME280;60933;46.398;-63.798;2022-08-01T07:27:29;101387.50;;;19.70;71.80
66703;BME280;60933;46.398;-63.798;2022-08-01T07:29:55;101382.19;;;19.72;70.60
66703;BME280;60933;46.398;-63.798;2022-08-01T07:32:21;101389.19;;;19.71;71.18
66703;BME280;60933;46.398;-63.798;2022-08-01T07:34:47;101384.88;;;19.70;71.50
66703;BME280;60933;46.398;-63.798;2022-08-01T07:37:14;101377.03;;;19.70;70.80
66703;BME280;60933;46.398;-63.798;2022-08-01T07:39:40;101381.44;;;19.70;70.72
66703;BME280;60933;46.398;-63.798;2022-08-01T07:42:06;101379.66;;;19.70;70.87
66703;BME280;60933;46.398;-63.798;2022-08-01T07:44:32;101381.53;;;19.68;70.93
66703;BME280;60933;46.398;-63.798;2022-08-01T07:46:58;101377.03;;;19.70;70.18
66703;BME280;60933;46.398;-63.798;2022-08-01T07:49:24;101377.97;;;19.69;70.73
66703;BME280;60933;46.398;-63.798;2022-08-01T07:51:50;101386.75;;;19.68;72.08
66703;BME280;60933;46.398;-63.798;2022-08-01T07:54:16;101390.44;;;19.64;73.13
66703;BME280;60933;46.398;-63.798;2022-08-01T07:56:42;101387.91;;;19.63;71.55
66703;BME280;60933;46.398;-63.798;2022-08-01T07:59:08;101388.94;;;19.60;72.21
66703;BME280;60933;46.398;-63.798;2022-08-01T08:01:35;101388.25;;;19.56;73.35
66703;BME280;60933;46.398;-63.798;2022-08-01T08:04:01;101374.38;;;19.54;73.41
66703;BME280;60933;46.398;-63.798;2022-08-01T08:06:27;101377.69;;;19.58;71.33
66703;BME280;60933;46.398;-63.798;2022-08-01T08:08:53;101376.75;;;19.59;73.21
66703;BME280;60933;46.398;-63.798;2022-08-01T08:11:19;101372.44;;;19.58;71.06
66703;BME280;60933;46.398;-63.798;2022-08-01T08:13:45;101375.06;;;19.58;71.65
66703;BME280;60933;46.398;-63.798;2022-08-01T08:16:11;101371.69;;;19.56;74.03
66703;BME280;60933;46.398;-63.798;2022-08-01T08:18:37;101370.94;;;19.54;75.42
66703;BME280;60933;46.398;-63.798;2022-08-01T08:21:03;101368.56;;;19.49;74.82
66703;BME280;60933;46.398;-63.798;2022-08-01T08:23:30;101365.84;;;19.51;73.81
66703;BME280;60933;46.398;-63.798;2022-08-01T08:26:14;101367.69;;;19.49;75.45
66703;BME280;60933;46.398;-63.798;2022-08-01T08:28:40;101374.72;;;19.48;74.66
66703;BME280;60933;46.398;-63.798;2022-08-01T08:31:07;101364.16;;;19.50;72.94
66703;BME280;60933;46.398;-63.798;2022-08-01T08:33:33;101364.97;;;19.50;73.50
66703;BME280;60933;46.398;-63.798;2022-08-01T08:35:59;101371.09;;;19.51;74.49
66703;BME280;60933;46.398;-63.798;2022-08-01T08:38:25;101359.84;;;19.49;73.12
66703;BME280;60933;46.398;-63.798;2022-08-01T08:40:52;101365.69;;;19.54;72.36
66703;BME280;60933;46.398;-63.798;2022-08-01T08:43:19;101372.78;;;19.52;72.31
66703;BME280;60933;46.398;-63.798;2022-08-01T08:45:46;101364.31;;;19.46;72.53
66703;BME280;60933;46.398;-63.798;2022-08-01T08:48:16;101375.22;;;19.55;71.69
66703;BME280;60933;46.398;-63.798;2022-08-01T08:50:43;101371.84;;;19.53;71.59
66703;BME280;60933;46.398;-63.798;2022-08-01T08:53:13;101374.53;;;19.51;73.47
66703;BME280;60933;46.398;-63.798;2022-08-01T08:55:41;101375.53;;;19.49;71.56
66703;BME280;60933;46.398;-63.798;2022-08-01T08:58:13;101378.25;;;19.47;71.51
66703;BME280;60933;46.398;-63.798;2022-08-01T09:00:41;101377.56;;;19.43;72.04
66703;BME280;60933;46.398;-63.798;2022-08-01T09:03:07;101380.28;;;19.42;70.66
66703;BME280;60933;46.398;-63.798;2022-08-01T09:05:34;101388.03;;;19.43;72.99
66703;BME280;60933;46.398;-63.798;2022-08-01T09:08:00;101389.09;;;19.39;72.88
66703;BME280;60933;46.398;-63.798;2022-08-01T09:10:26;101393.59;;;19.37;72.57
66703;BME280;60933;46.398;-63.798;2022-08-01T09:13:07;101395.34;;;19.37;71.20
66703;BME280;60933;46.398;-63.798;2022-08-01T09:15:48;101376.53;;;19.30;71.39
66703;BME280;60933;46.398;-63.798;2022-08-01T09:18:36;101378.72;;;19.38;71.06
66703;BME280;60933;46.398;-63.798;2022-08-01T09:23:48;101374.34;;;19.38;71.10
66703;BME280;60933;46.398;-63.798;2022-08-01T09:26:17;101370.63;;;19.42;72.44
66703;BME280;60933;46.398;-63.798;2022-08-01T09:28:45;101364.56;;;19.42;72.43
66703;BME280;60933;46.398;-63.798;2022-08-01T09:31:14;101366.22;;;19.43;71.83
66703;BME280;60933;46.398;-63.798;2022-08-01T09:33:59;101366.31;;;19.41;71.69
66703;BME280;60933;46.398;-63.798;2022-08-01T09:36:49;101374.03;;;19.44;73.86
66703;BME280;60933;46.398;-63.798;2022-08-01T09:39:24;101368.78;;;19.44;72.38
66703;BME280;60933;46.398;-63.798;2022-08-01T09:41:50;101374.72;;;19.48;71.75
66703;BME280;60933;46.398;-63.798;2022-08-01T09:44:17;101380.78;;;19.49;71.69
66703;BME280;60933;46.398;-63.798;2022-08-01T09:46:54;101384.03;;;19.54;71.26
66703;BME280;60933;46.398;-63.798;2022-08-01T09:49:32;101390.88;;;19.56;71.35
66703;BME280;60933;46.398;-63.798;2022-08-01T09:52:10;101392.47;;;19.59;71.64
66703;BME280;60933;46.398;-63.798;2022-08-01T09:54:37;101391.47;;;19.61;72.24
66703;BME280;60933;46.398;-63.798;2022-08-01T09:57:18;101381.81;;;19.62;74.36
66703;BME280;60933;46.398;-63.798;2022-08-01T09:59:46;101380.16;;;19.61;72.10
66703;BME280;60933;46.398;-63.798;2022-08-01T10:02:14;101384.63;;;19.59;73.43
66703;BME280;60933;46.398;-63.798;2022-08-01T10:04:48;101384.63;;;19.59;73.66
66703;BME280;60933;46.398;-63.798;2022-08-01T10:07:15;101395.94;;;19.59;72.02
66703;BME280;60933;46.398;-63.798;2022-08-01T10:09:42;101395.88;;;19.61;71.41
66703;BME280;60933;46.398;-63.798;2022-08-01T10:12:10;101386.31;;;19.60;70.50
66703;BME280;60933;46.398;-63.798;2022-08-01T10:14:38;101395.78;;;19.63;71.22
66703;BME280;60933;46.398;-63.798;2022-08-01T10:17:09;101393.06;;;19.64;71.50
66703;BME280;60933;46.398;-63.798;2022-08-01T10:19:39;101381.66;;;19.65;70.55
66703;BME280;60933;46.398;-63.798;2022-08-01T10:22:12;101389.53;;;19.65;71.44
66703;BME280;60933;46.398;-63.798;2022-08-01T10:24:45;101386.91;;;19.65;70.29
66703;BME280;60933;46.398;-63.798;2022-08-01T10:27:15;101394.69;;;19.67;73.83
66703;BME280;60933;46.398;-63.798;2022-08-01T10:29:59;101393.69;;;19.69;74.67
66703;BME280;60933;46.398;-63.798;2022-08-01T10:32:35;101381.34;;;19.71;73.91
66703;BME280;60933;46.398;-63.798;2022-08-01T10:35:04;101372.56;;;19.72;73.79
66703;BME280;60933;46.398;-63.798;2022-08-01T10:37:30;101384.41;;;19.80;73.22
66703;BME280;60933;46.398;-63.798;2022-08-01T10:39:57;101386.00;;;19.82;71.30
66703;BME280;60933;46.398;-63.798;2022-08-01T10:42:23;101385.78;;;19.87;71.34
66703;BME280;60933;46.398;-63.798;2022-08-01T10:44:50;101382.34;;;19.86;71.01
66703;BME280;60933;46.398;-63.798;2022-08-01T10:48:12;101387.16;;;19.94;70.30
66703;BME280;60933;46.398;-63.798;2022-08-01T10:50:44;101382.53;;;19.99;72.25
66703;BME280;60933;46.398;-63.798;2022-08-01T10:53:19;101385.56;;;20.07;69.22
66703;BME280;60933;46.398;-63.798;2022-08-01T10:58:33;101401.13;;;20.27;69.16
66703;BME280;60933;46.398;-63.798;2022-08-01T11:01:26;101417.94;;;20.38;70.86
66703;BME280;60933;46.398;-63.798;2022-08-01T11:09:38;101424.13;;;20.37;69.17
66703;BME280;60933;46.398;-63.798;2022-08-01T11:12:08;101430.09;;;20.39;71.08
66703;BME280;60933;46.398;-63.798;2022-08-01T11:17:41;101431.56;;;20.61;70.38
66703;BME280;60933;46.398;-63.798;2022-08-01T11:20:34;101431.94;;;20.69;69.26
66703;BME280;60933;46.398;-63.798;2022-08-01T11:26:05;101417.41;;;20.80;68.89
66703;BME280;60933;46.398;-63.798;2022-08-01T11:30:47;101388.38;;;20.83;69.13
66703;BME280;60933;46.398;-63.798;2022-08-01T11:33:15;101393.16;;;20.91;70.44
66703;BME280;60933;46.398;-63.798;2022-08-01T11:38:41;101386.91;;;20.93;68.60
66703;BME280;60933;46.398;-63.798;2022-08-01T11:41:17;101394.44;;;20.99;68.92
66703;BME280;60933;46.398;-63.798;2022-08-01T11:44:04;101393.31;;;21.03;69.11
66703;BME280;60933;46.398;-63.798;2022-08-01T11:55:08;101397.00;;;21.30;67.91
66703;BME280;60933;46.398;-63.798;2022-08-01T11:57:35;101394.94;;;21.35;67.28
66703;BME280;60933;46.398;-63.798;2022-08-01T12:00:14;101399.19;;;21.38;67.95
66703;BME280;60933;46.398;-63.798;2022-08-01T12:02:42;101410.03;;;21.46;69.01
66703;BME280;60933;46.398;-63.798;2022-08-01T12:05:13;101402.38;;;21.43;69.80
66703;BME280;60933;46.398;-63.798;2022-08-01T12:07:42;101397.28;;;21.54;68.20
66703;BME280;60933;46.398;-63.798;2022-08-01T12:10:11;101392.38;;;21.64;68.27
66703;BME280;60933;46.398;-63.798;2022-08-01T12:15:12;101391.03;;;21.86;67.86
66703;BME280;60933;46.398;-63.798;2022-08-01T12:17:41;101390.25;;;21.98;67.92
66703;BME280;60933;46.398;-63.798;2022-08-01T12:20:12;101369.06;;;22.01;66.74
66703;BME280;60933;46.398;-63.798;2022-08-01T12:22:38;101378.78;;;22.13;67.99
66703;BME280;60933;46.398;-63.798;2022-08-01T12:25:06;101372.75;;;22.26;68.19
66703;BME280;60933;46.398;-63.798;2022-08-01T12:27:33;101371.75;;;22.41;68.08
66703;BME280;60933;46.398;-63.798;2022-08-01T12:30:01;101383.19;;;22.55;66.92
66703;BME280;60933;46.398;-63.798;2022-08-01T12:32:30;101384.97;;;22.54;67.52
66703;BME280;60933;46.398;-63.798;2022-08-01T12:35:04;101377.06;;;22.54;66.94
66703;BME280;60933;46.398;-63.798;2022-08-01T12:37:34;101376.66;;;22.60;67.22
66703;BME280;60933;46.398;-63.798;2022-08-01T12:40:08;101382.81;;;22.74;67.86
66703;BME280;60933;46.398;-63.798;2022-08-01T12:42:37;101385.66;;;22.84;65.43
66703;BME280;60933;46.398;-63.798;2022-08-01T12:45:07;101372.50;;;22.84;65.44
66703;BME280;60933;46.398;-63.798;2022-08-01T12:47:35;101370.22;;;22.92;66.23
66703;BME280;60933;46.398;-63.798;2022-08-01T12:50:07;101366.22;;;22.99;66.00
66703;BME280;60933;46.398;-63.798;2022-08-01T12:52:34;101364.63;;;22.97;66.11
66703;BME280;60933;46.398;-63.798;2022-08-01T12:55:04;101370.13;;;23.06;65.02
66703;BME280;60933;46.398;-63.798;2022-08-01T12:57:32;101355.47;;;23.15;64.70
66703;BME280;60933;46.398;-63.798;2022-08-01T13:00:10;101356.34;;;23.16;65.08
66703;BME280;60933;46.398;-63.798;2022-08-01T13:02:37;101348.97;;;23.21;65.23
66703;BME280;60933;46.398;-63.798;2022-08-01T13:05:05;101356.56;;;23.26;64.96
66703;BME280;60933;46.398;-63.798;2022-08-01T13:07:57;101354.75;;;23.39;66.05
66703;BME280;60933;46.398;-63.798;2022-08-01T13:10:29;101350.03;;;23.44;65.19
66703;BME280;60933;46.398;-63.798;2022-08-01T13:12:58;101345.28;;;23.49;65.28
66703;BME280;60933;46.398;-63.798;2022-08-01T13:15:28;101353.59;;;23.56;65.12
66703;BME280;60933;46.398;-63.798;2022-08-01T13:17:58;101342.38;;;23.65;64.38
66703;BME280;60933;46.398;-63.798;2022-08-01T13:20:43;101347.78;;;23.64;64.26
66703;BME280;60933;46.398;-63.798;2022-08-01T13:23:17;101332.75;;;23.77;64.35
66703;BME280;60933;46.398;-63.798;2022-08-01T13:25:54;101328.31;;;23.91;64.33
66703;BME280;60933;46.398;-63.798;2022-08-01T13:28:24;101322.63;;;23.97;63.67